Time;durP1;ratioP1;P1;durP2;ratioP2;P2;SDS_P1;SDS_P2;PMS_P1;PMS_P2;Temp;Humidity;BMP_temperature;BMP_pressure;BME280_temperature;BME280_humidity;BME280_pressure;Samples;Min_cycle;Max_cycle;Signal;HPM_P1;HPM_P2
2024/02/14 00:03:00;;;;;;;2.35;1.60;;;;;;;9.21;60.13;100696.84;10258771;28;20106;-68
2024/02/14 00:08:04;;;;;;;4.13;1.75;;;;;;;9.16;60.62;100687.59;10262091;28;20584;-67
2024/02/14 00:13:08;;;;;;;3.50;1.50;;;;;;;9.20;60.54;100695.19;10263867;28;20045;-67
2024/02/14 00:18:09;;;;;;;3.25;1.25;;;;;;;9.13;60.64;100697.66;10260358;28;20994;-67
2024/02/14 00:23:11;;;;;;;8.90;1.63;;;;;;;9.09;60.61;100693.59;10260741;28;20042;-66
2024/02/14 00:28:13;;;;;;;3.50;1.25;;;;;;;9.06;60.60;100696.63;10259855;28;20051;-66
2024/02/14 00:33:14;;;;;;;7.60;1.60;;;;;;;9.16;60.46;100692.97;10257468;28;20134;-66
2024/02/14 00:38:16;;;;;;;8.02;1.45;;;;;;;9.09;60.63;100685.56;10272949;28;20062;-66
2024/02/14 00:43:18;;;;;;;3.08;1.50;;;;;;;9.09;60.90;100685.56;10254985;28;20062;-67
2024/02/14 00:48:20;;;;;;;6.88;1.67;;;;;;;8.88;61.29;100685.06;10258210;28;20043;-66
2024/02/14 00:53:23;;;;;;;3.97;1.50;;;;;;;8.84;61.33;100675.66;10255235;28;20082;-67
2024/02/14 00:58:25;;;;;;;3.53;1.10;;;;;;;8.89;61.37;100668.00;10268049;28;20401;-67
2024/02/14 01:03:27;;;;;;;6.82;1.83;;;;;;;8.73;61.76;100666.88;10267188;28;20055;-67
2024/02/14 01:08:28;;;;;;;5.20;1.60;;;;;;;8.63;62.30;100659.91;10267846;28;20046;-67
2024/02/14 01:13:30;;;;;;;4.53;1.83;;;;;;;8.59;62.45;100659.41;10276385;28;20047;-67
2024/02/14 01:18:31;;;;;;;4.80;3.05;;;;;;;8.58;62.48;100648.84;10261965;28;20061;-67
2024/02/14 01:23:33;;;;;;;7.43;1.70;;;;;;;8.50;62.51;100654.97;10258910;28;20105;-66
2024/02/14 01:28:35;;;;;;;5.00;1.75;;;;;;;8.39;63.28;100642.63;10267642;28;20051;-67
2024/02/14 01:33:38;;;;;;;4.00;2.20;;;;;;;8.32;63.16;100644.25;10268246;28;20050;-67
2024/02/14 01:38:40;;;;;;;4.68;1.35;;;;;;;8.29;63.67;100657.94;10259015;28;20147;-67
2024/02/14 01:43:41;;;;;;;3.65;1.25;;;;;;;8.26;63.95;100655.56;10276062;28;20134;-65
2024/02/14 01:48:43;;;;;;;4.35;1.95;;;;;;;8.30;63.62;100647.06;10265051;28;20138;-67
2024/02/14 01:53:45;;;;;;;5.40;1.90;;;;;;;8.29;63.79;100647.22;10269117;28;20043;-68
2024/02/14 01:58:47;;;;;;;7.50;2.05;;;;;;;8.34;63.71;100643.09;10260624;28;20078;-68
2024/02/14 02:03:48;;;;;;;6.78;2.20;;;;;;;8.37;63.70;100627.69;10264498;28;20093;-68
2024/02/14 02:08:50;;;;;;;6.07;1.95;;;;;;;8.48;63.81;100624.81;10262529;28;20053;-68
2024/02/14 02:13:52;;;;;;;5.40;2.30;;;;;;;8.44;64.06;100615.41;10263740;28;20046;-68
2024/02/14 02:18:54;;;;;;;6.93;1.85;;;;;;;8.51;64.08;100624.50;10255110;28;20073;-68
2024/02/14 02:23:58;;;;;;;5.60;2.05;;;;;;;8.53;63.97;100609.97;10266890;28;20051;-64
2024/02/14 02:29:00;;;;;;;5.38;2.20;;;;;;;8.43;64.04;100606.53;10266652;28;20134;-69
2024/02/14 02:34:02;;;;;;;4.45;2.22;;;;;;;8.44;64.46;100610.06;10271467;28;20047;-68
2024/02/14 02:39:04;;;;;;;5.35;1.67;;;;;;;8.46;64.54;100610.75;10268893;28;20047;-69
2024/02/14 02:44:06;;;;;;;5.00;2.00;;;;;;;8.52;64.30;100608.25;10261578;28;20051;-69
2024/02/14 02:49:08;;;;;;;5.25;1.77;;;;;;;8.63;64.28;100612.53;10275912;28;20054;-69
2024/02/14 02:54:11;;;;;;;4.43;2.35;;;;;;;8.68;64.13;100609.38;10263916;28;20044;-68
2024/02/14 02:59:13;;;;;;;4.35;2.40;;;;;;;8.67;64.27;100618.44;10276762;28;20082;-69
2024/02/14 03:04:15;;;;;;;6.05;1.98;;;;;;;8.70;64.19;100623.47;10264760;28;20051;-66
2024/02/14 03:09:17;;;;;;;5.63;2.00;;;;;;;8.71;64.60;100611.75;10276544;28;20118;-68
2024/02/14 03:14:19;;;;;;;3.33;2.42;;;;;;;8.72;64.75;100614.25;10261138;28;20055;-69
2024/02/14 03:19:22;;;;;;;4.68;1.95;;;;;;;8.76;64.42;100614.78;10262700;28;20043;-67
2024/02/14 03:24:25;;;;;;;8.98;3.28;;;;;;;8.89;64.20;100600.97;10259418;28;20047;-68
2024/02/14 03:29:26;;;;;;;3.78;1.23;;;;;;;8.95;64.24;100602.19;10258899;28;20055;-69
2024/02/14 03:34:30;;;;;;;5.20;2.13;;;;;;;9.03;64.35;100610.28;10259637;28;20051;-67
2024/02/14 03:39:32;;;;;;;3.45;1.63;;;;;;;9.11;64.01;100621.88;10259919;28;20397;-69
2024/02/14 03:44:33;;;;;;;8.35;1.92;;;;;;;9.02;64.31;100621.97;10260991;28;20074;-67
2024/02/14 03:49:35;;;;;;;2.78;1.70;;;;;;;9.20;63.74;100627.28;10259105;28;20055;-67
2024/02/14 03:54:37;;;;;;;9.88;2.22;;;;;;;9.30;63.59;100626.16;10260553;28;20059;-67
2024/02/14 03:59:39;;;;;;;6.75;2.20;;;;;;;9.37;63.34;100612.09;10259431;28;20043;-70
2024/02/14 04:04:42;;;;;;;4.82;2.53;;;;;;;9.35;63.82;100614.09;10255870;28;20083;-70
2024/02/14 04:09:43;;;;;;;9.48;3.58;;;;;;;9.38;63.88;100627.19;10258410;28;20157;-71
2024/02/14 04:14:44;;;;;;;5.35;3.03;;;;;;;9.24;64.03;100609.84;10254906;28;20506;-69
2024/02/14 04:19:46;;;;;;;5.05;2.33;;;;;;;9.22;64.18;100618.09;10260735;28;20121;-68
2024/02/14 04:24:48;;;;;;;9.18;3.05;;;;;;;9.20;64.41;100614.72;10260248;28;20462;-68
2024/02/14 04:29:49;;;;;;;6.38;1.88;;;;;;;9.24;64.45;100612.53;10253797;28;20109;-68
2024/02/14 04:34:51;;;;;;;1.50;1.05;;;;;;;9.24;64.35;100621.44;10258228;28;20473;-71
2024/02/14 04:39:53;;;;;;;4.82;1.10;;;;;;;9.20;64.21;100613.88;10254075;28;20057;-71
2024/02/14 04:44:54;;;;;;;5.68;2.08;;;;;;;9.16;64.67;100625.91;10273663;28;20066;-71
2024/02/14 04:49:56;;;;;;;3.35;1.33;;;;;;;9.32;63.86;100626.84;10249463;28;20066;-71
2024/02/14 04:54:57;;;;;;;4.82;1.58;;;;;;;9.33;64.04;100625.00;10276816;28;20114;-68
2024/02/14 04:59:59;;;;;;;4.95;1.23;;;;;;;9.33;64.18;100625.81;10263158;28;20147;-68
2024/02/14 05:05:01;;;;;;;4.65;1.50;;;;;;;9.37;64.23;100625.53;10258706;28;20498;-68
2024/02/14 05:10:03;;;;;;;5.45;2.08;;;;;;;9.37;64.17;100638.94;10251514;28;20556;-68
2024/02/14 05:15:06;;;;;;;2.13;1.50;;;;;;;9.36;63.92;100631.88;10258241;28;20063;-66
2024/02/14 05:20:08;;;;;;;9.88;2.28;;;;;;;9.36;64.18;100630.06;10313327;23;20062;-87
2024/02/14 05:25:11;;;;;;;2.63;1.73;;;;;;;9.32;64.11;100626.84;10315512;28;20110;-88
2024/02/14 05:30:15;;;;;;;2.63;1.52;;;;;;;9.32;64.56;100613.44;10311451;28;20051;-87
2024/02/14 05:35:17;;;;;;;5.35;1.70;;;;;;;9.15;64.86;100616.19;10341817;28;20074;-86
2024/02/14 05:40:18;;;;;;;3.45;2.03;;;;;;;9.04;65.13;100620.81;10319756;28;20137;-85
2024/02/14 05:45:20;;;;;;;7.20;2.63;;;;;;;8.98;65.34;100632.19;10340738;28;20062;-87
2024/02/14 05:50:22;;;;;;;5.38;1.77;;;;;;;9.01;65.18;100623.84;10312990;28;20449;-87
2024/02/14 05:55:24;;;;;;;6.97;1.42;;;;;;;9.01;65.12;100631.03;10326450;28;20046;-87
2024/02/14 06:00:26;;;;;;;4.75;1.70;;;;;;;8.97;65.28;100630.50;10327078;28;20120;-88
2024/02/14 06:05:31;;;;;;;4.03;1.60;;;;;;;8.99;65.71;100620.47;10317996;28;20726;-89
2024/02/14 06:10:34;;;;;;;2.90;1.63;;;;;;;9.01;65.49;100629.19;10321826;28;20070;-87
2024/02/14 06:15:36;;;;;;;5.25;1.58;;;;;;;9.12;65.28;100628.94;10302629;28;20133;-88
2024/02/14 06:20:39;;;;;;;8.52;2.63;;;;;;;9.03;66.11;100643.28;10317666;28;20202;-87
2024/02/14 06:25:41;;;;;;;3.10;2.20;;;;;;;9.00;65.92;100656.16;10326344;28;20056;-88
2024/02/14 06:30:43;;;;;;;5.55;2.20;;;;;;;8.92;66.24;100670.34;10325266;28;20408;-88
2024/02/14 06:35:48;;;;;;;3.90;2.30;;;;;;;8.92;66.26;100657.78;10309152;28;20046;-88
2024/02/14 06:40:51;;;;;;;8.02;2.42;;;;;;;9.07;65.93;100646.50;10318953;28;20133;-90
2024/02/14 06:45:52;;;;;;;3.90;2.55;;;;;;;9.12;65.85;100660.25;10319899;28;20050;-89
2024/02/14 06:50:54;;;;;;;6.55;2.40;;;;;;;9.17;65.86;100668.69;10314925;28;20039;-90
2024/02/14 06:55:58;;;;;;;6.78;2.42;;;;;;;9.20;65.70;100673.72;10321322;28;20061;-89
2024/02/14 07:01:03;;;;;;;7.85;2.50;;;;;;;9.23;66.02;100694.84;10327280;28;20054;-90
2024/02/14 07:06:07;;;;;;;7.43;2.63;;;;;;;9.28;65.79;100687.19;10319913;28;20130;-88
2024/02/14 07:11:10;;;;;;;6.63;2.95;;;;;;;9.39;65.62;100691.41;10310953;28;20402;-90
2024/02/14 07:16:11;;;;;;;6.68;2.83;;;;;;;9.46;65.51;100687.09;10322420;28;20506;-90
2024/02/14 07:21:14;;;;;;;8.23;2.20;;;;;;;9.54;65.71;100691.69;10318197;28;20051;-90
2024/02/14 07:26:15;;;;;;;4.55;2.17;;;;;;;9.70;65.61;100672.09;10322440;28;20047;-90
2024/02/14 07:31:18;;;;;;;5.97;2.22;;;;;;;9.76;65.51;100667.94;10334294;28;20046;-89
2024/02/14 07:36:20;;;;;;;6.85;1.58;;;;;;;9.93;65.12;100672.31;10339953;28;20102;-90
2024/02/14 07:41:22;;;;;;;4.13;1.40;;;;;;;10.03;65.63;100688.31;10347725;22;20069;-61
2024/02/14 07:46:26;;;;;;;7.18;1.95;;;;;;;10.06;65.37;100678.06;10289905;28;20090;-61
2024/02/14 07:51:28;;;;;;;4.55;1.55;;;;;;;10.16;65.40;100686.00;10276507;28;20070;-60
2024/02/14 07:56:31;;;;;;;6.43;1.52;;;;;;;10.15;65.76;100686.16;10286933;28;20476;-62
2024/02/14 08:01:32;;;;;;;7.20;2.42;;;;;;;10.27;65.54;100698.28;10278042;28;20145;-62
2024/02/14 08:06:34;;;;;;;6.47;1.80;;;;;;;10.38;65.55;100700.66;10278862;28;20046;-60
2024/02/14 08:11:36;;;;;;;5.78;1.20;;;;;;;10.41;65.36;100700.34;10276186;28;20054;-60
2024/02/14 08:16:37;;;;;;;8.35;1.83;;;;;;;10.46;65.22;100694.47;10279107;28;20046;-60
2024/02/14 08:21:39;;;;;;;6.68;2.25;;;;;;;10.55;65.19;100679.19;10270813;28;20160;-60
2024/02/14 08:26:40;;;;;;;8.45;2.15;;;;;;;10.62;65.61;100682.88;10266730;28;20078;-61
2024/02/14 08:31:42;;;;;;;2.78;1.10;;;;;;;10.66;65.42;100687.75;10265969;28;20062;-61
2024/02/14 08:36:44;;;;;;;2.47;1.20;;;;;;;10.63;65.60;100701.53;10264971;28;20413;-60
2024/02/14 08:41:46;;;;;;;3.90;1.35;;;;;;;10.73;65.71;100697.84;10269739;28;20102;-60
2024/02/14 08:46:49;;;;;;;6.18;1.10;;;;;;;10.74;65.80;100703.03;10265162;28;20055;-62
2024/02/14 08:51:50;;;;;;;5.60;0.70;;;;;;;10.94;65.44;100700.00;10283258;28;20051;-68
2024/02/14 08:56:55;;;;;;;3.05;1.00;;;;;;;10.99;65.18;100697.66;10290272;28;20054;-66
2024/02/14 09:01:57;;;;;;;5.68;1.00;;;;;;;10.96;65.30;100706.91;10279784;28;20085;-67
2024/02/14 09:06:58;;;;;;;6.03;1.20;;;;;;;11.12;65.44;100719.50;10272057;28;20075;-68
2024/02/14 09:12:03;;;;;;;4.30;1.00;;;;;;;11.00;65.66;100723.53;10278036;28;20113;-66
2024/02/14 09:17:05;;;;;;;4.07;1.05;;;;;;;11.06;66.05;100733.63;10270417;28;20078;-69
2024/02/14 09:22:06;;;;;;;2.70;0.80;;;;;;;11.13;65.75;100720.31;10290138;28;20054;-67
2024/02/14 09:27:08;;;;;;;2.63;0.77;;;;;;;11.25;65.67;100724.34;10275761;28;20063;-71
2024/02/14 09:32:09;;;;;;;9.35;1.10;;;;;;;11.31;65.62;100716.44;10271990;28;20054;-69
2024/02/14 09:37:11;;;;;;;3.80;1.00;;;;;;;11.48;65.58;100711.81;10269685;28;20516;-68
2024/02/14 09:42:15;;;;;;;1.50;0.90;;;;;;;11.49;65.85;100712.66;10279091;28;20067;-70
2024/02/14 09:47:17;;;;;;;2.55;1.00;;;;;;;11.56;65.91;100721.72;10269914;28;20055;-69
2024/02/14 09:52:20;;;;;;;3.63;0.93;;;;;;;11.61;66.06;100722.06;10276248;28;20413;-70
2024/02/14 09:57:23;;;;;;;2.10;1.00;;;;;;;11.70;65.86;100723.69;10275458;28;20052;-69
2024/02/14 10:02:24;;;;;;;3.53;1.00;;;;;;;11.52;66.59;100723.94;10278626;28;20057;-64
2024/02/14 10:07:26;;;;;;;2.30;0.82;;;;;;;11.52;66.81;100731.16;10273897;28;20618;-65
2024/02/14 10:12:29;;;;;;;2.80;1.00;;;;;;;11.58;65.96;100733.16;10279336;28;20402;-64
2024/02/14 10:17:33;;;;;;;2.60;0.85;;;;;;;11.74;66.12;100731.44;10270208;28;20047;-65
2024/02/14 10:22:38;;;;;;;5.03;1.48;;;;;;;11.82;66.03;100742.19;10277652;28;20047;-65
2024/02/14 10:27:40;;;;;;;3.17;1.02;;;;;;;12.10;65.73;100734.50;10277562;28;20514;-65
2024/02/14 10:32:47;;;;;;;3.15;0.80;;;;;;;12.27;65.67;100738.78;10279691;28;20138;-64
2024/02/14 10:37:49;;;;;;;4.85;0.95;;;;;;;12.41;65.54;100750.66;10275011;28;20060;-64
2024/02/14 10:42:51;;;;;;;6.82;1.38;;;;;;;12.43;65.35;100755.88;10276680;28;20084;-65
2024/02/14 10:47:57;;;;;;;3.58;1.40;;;;;;;12.44;65.41;100768.34;10282334;28;20047;-65
2024/02/14 10:53:01;;;;;;;3.30;0.80;;;;;;;12.48;65.34;100773.22;10271946;28;20059;-66
2024/02/14 10:58:04;;;;;;;4.20;0.80;;;;;;;12.37;65.14;100765.50;10282446;28;20066;-64
2024/02/14 11:03:06;;;;;;;2.55;0.80;;;;;;;12.38;65.22;100758.25;10275707;28;20047;-66
2024/02/14 11:08:09;;;;;;;1.95;0.75;;;;;;;12.52;65.03;100760.22;10273200;28;20053;-64
2024/02/14 11:13:14;;;;;;;3.80;0.75;;;;;;;12.82;64.50;100763.88;10273547;28;20050;-63
2024/02/14 11:18:25;;;;;;;1.63;0.77;;;;;;;12.89;64.63;100770.22;10269862;28;20051;-65
2024/02/14 11:23:30;;;;;;;4.05;0.90;;;;;;;13.10;64.23;100747.09;10268428;28;20050;-62
2024/02/14 11:28:37;;;;;;;3.10;0.60;;;;;;;13.13;63.99;100748.59;10271064;28;20047;-65
2024/02/14 11:33:38;;;;;;;3.17;0.80;;;;;;;13.08;64.34;100741.06;10264617;28;20142;-64
2024/02/14 11:38:40;;;;;;;7.28;1.73;;;;;;;13.14;64.22;100736.78;10266612;28;20071;-63
2024/02/14 11:43:51;;;;;;;1.70;0.90;;;;;;;13.07;64.08;100721.34;10281066;28;20051;-64
2024/02/14 11:48:52;;;;;;;2.05;0.77;;;;;;;13.16;64.12;100730.19;10297981;28;20075;-61
2024/02/14 11:53:55;;;;;;;2.50;0.93;;;;;;;13.19;64.01;100728.97;10293488;28;20047;-61
2024/02/14 11:58:57;;;;;;;1.30;0.60;;;;;;;13.21;64.18;100740.41;10271060;28;20113;-65
2024/02/14 12:04:08;;;;;;;1.80;1.08;;;;;;;13.20;64.18;100733.34;10265131;28;20054;-65
2024/02/14 12:09:12;;;;;;;1.92;0.45;;;;;;;13.09;64.28;100740.00;10270587;28;20061;-65
2024/02/14 12:14:15;;;;;;;2.33;0.40;;;;;;;13.11;64.30;100743.38;10270620;28;20132;-65
2024/02/14 12:19:17;;;;;;;0.85;0.52;;;;;;;13.15;64.18;100741.16;10268342;28;20163;-69
2024/02/14 12:24:19;;;;;;;2.15;0.50;;;;;;;13.21;64.17;100735.88;10269018;28;20102;-69
2024/02/14 12:29:23;;;;;;;1.55;0.70;;;;;;;13.27;64.08;100737.84;10275812;28;20137;-70
2024/02/14 12:34:27;;;;;;;2.35;0.57;;;;;;;13.27;64.20;100735.13;10279089;28;20158;-70
2024/02/14 12:39:30;;;;;;;2.33;0.60;;;;;;;13.22;64.32;100736.69;10273027;28;20109;-70
2024/02/14 12:44:32;;;;;;;1.85;0.43;;;;;;;13.22;64.12;100742.09;10272667;28;20055;-70
2024/02/14 12:49:34;;;;;;;1.10;0.88;;;;;;;13.16;64.38;100734.75;10273573;28;20069;-70
2024/02/14 12:54:36;;;;;;;1.92;0.63;;;;;;;13.25;64.31;100744.41;10276585;28;20409;-68
2024/02/14 12:59:37;;;;;;;2.67;0.70;;;;;;;13.38;63.97;100733.03;10277997;28;20049;-70
2024/02/14 13:04:39;;;;;;;1.60;0.75;;;;;;;13.22;64.81;100742.09;10281456;28;20049;-68
2024/02/14 13:09:41;;;;;;;3.85;1.75;;;;;;;13.23;64.52;100735.66;10271905;28;20430;-70
2024/02/14 13:14:44;;;;;;;3.60;1.15;;;;;;;13.26;64.50;100725.34;10285722;28;20133;-66
2024/02/14 13:19:46;;;;;;;2.22;0.70;;;;;;;13.32;64.74;100714.88;10273101;28;20113;-68
2024/02/14 13:24:47;;;;;;;2.63;0.68;;;;;;;13.48;64.36;100717.38;10273816;28;20047;-68
2024/02/14 13:29:49;;;;;;;2.00;0.77;;;;;;;13.49;64.44;100708.28;10273453;28;20050;-65
2024/02/14 13:34:51;;;;;;;3.92;0.90;;;;;;;13.53;64.27;100706.88;10273003;28;20086;-63
2024/02/14 13:39:53;;;;;;;2.13;1.00;;;;;;;13.54;64.25;100711.22;10271990;28;20363;-65
2024/02/14 13:44:56;;;;;;;1.13;0.55;;;;;;;13.51;64.51;100722.44;10274676;28;20043;-63
2024/02/14 13:49:57;;;;;;;4.53;0.93;;;;;;;13.48;64.56;100698.47;10273991;28;20367;-65
2024/02/14 13:54:59;;;;;;;2.88;1.13;;;;;;;13.54;64.47;100713.09;10275078;28;20146;-64
2024/02/14 14:00:02;;;;;;;5.28;1.08;;;;;;;13.54;64.71;100707.69;10278847;28;20083;-65
2024/02/14 14:05:04;;;;;;;2.38;0.98;;;;;;;13.56;64.86;100702.94;10275416;28;20063;-64
2024/02/14 14:10:08;;;;;;;4.30;0.88;;;;;;;13.69;64.81;100698.56;10271308;28;20134;-62
2024/02/14 14:15:10;;;;;;;2.95;1.00;;;;;;;13.68;64.97;100691.50;10252904;28;20078;-65
2024/02/14 14:20:12;;;;;;;1.88;1.00;;;;;;;13.51;65.39;100689.16;10268186;28;20382;-63
2024/02/14 14:25:14;;;;;;;2.25;1.30;;;;;;;13.40;65.99;100710.22;10273450;28;20047;-63
2024/02/14 14:30:15;;;;;;;2.83;0.88;;;;;;;13.43;65.80;100709.03;10275556;28;20572;-65
2024/02/14 14:35:17;;;;;;;3.00;1.30;;;;;;;13.25;66.42;100704.78;10274180;28;20082;-65
2024/02/14 14:40:19;;;;;;;1.20;0.70;;;;;;;13.39;66.25;100696.88;10273282;28;20054;-67
2024/02/14 14:45:21;;;;;;;3.63;1.20;;;;;;;13.41;66.38;100695.69;10267442;28;20416;-65
2024/02/14 14:50:22;;;;;;;5.30;1.58;;;;;;;13.34;66.79;100704.72;10265680;28;20075;-66
2024/02/14 14:55:24;;;;;;;5.65;1.83;;;;;;;13.34;66.89;100696.63;10281545;28;20934;-65
2024/02/14 15:00:26;;;;;;;2.47;1.20;;;;;;;13.19;67.28;100700.13;10276871;28;20050;-65
2024/02/14 15:05:27;;;;;;;2.65;1.50;;;;;;;13.09;67.67;100694.13;10279481;28;20046;-65
2024/02/14 15:10:29;;;;;;;1.58;1.13;;;;;;;13.01;68.14;100705.88;10270317;28;20062;-67
2024/02/14 15:15:32;;;;;;;4.55;2.95;;;;;;;13.01;68.40;100703.19;10275246;28;20448;-63
2024/02/14 15:20:36;;;;;;;5.30;1.40;;;;;;;13.03;68.15;100698.44;10289271;28;20042;-62
2024/02/14 15:25:38;;;;;;;4.65;1.45;;;;;;;13.07;68.47;100705.13;10264983;28;20043;-61
2024/02/14 15:36:00;;;;;;;3.03;1.63;;;;;;;13.06;68.56;100697.22;10294456;28;20066;-63
2024/02/14 15:41:04;;;;;;;2.42;1.40;;;;;;;13.04;68.81;100696.56;10277596;28;20136;-66
2024/02/14 15:46:05;;;;;;;4.13;1.27;;;;;;;13.00;69.13;100692.56;10268407;28;20043;-65
2024/02/14 15:51:07;;;;;;;2.33;1.10;;;;;;;12.96;69.35;100693.94;10273880;28;20050;-62
2024/02/14 15:56:11;;;;;;;2.90;1.30;;;;;;;12.93;69.51;100683.50;10269131;28;20051;-63
2024/02/14 16:01:14;;;;;;;6.50;1.67;;;;;;;12.86;69.83;100697.72;10268571;28;20055;-62
2024/02/14 16:06:15;;;;;;;2.63;1.30;;;;;;;12.83;70.04;100676.50;10271534;28;20433;-62
2024/02/14 16:11:18;;;;;;;2.38;1.00;;;;;;;12.78;70.33;100688.88;10267348;28;20413;-64
2024/02/14 16:16:19;;;;;;;2.33;1.13;;;;;;;12.70;70.73;100692.50;10274794;28;20926;-61
2024/02/14 16:21:21;;;;;;;4.68;1.30;;;;;;;12.77;70.49;100687.19;10275614;28;20051;-63
2024/02/14 16:26:23;;;;;;;2.80;0.90;;;;;;;12.68;70.66;100679.19;10268215;28;20053;-62
2024/02/14 16:31:28;;;;;;;6.28;1.40;;;;;;;12.58;70.84;100688.53;10270187;28;20486;-63
2024/02/14 16:36:30;;;;;;;3.35;1.42;;;;;;;12.52;71.60;100691.94;10264724;28;20463;-62
2024/02/14 16:41:31;;;;;;;3.47;1.10;;;;;;;12.53;71.55;100696.31;10269485;28;20141;-62
2024/02/14 16:46:33;;;;;;;2.25;0.90;;;;;;;12.47;71.92;100693.31;10266709;28;20458;-64
2024/02/14 16:51:34;;;;;;;2.55;1.00;;;;;;;12.38;72.30;100698.94;10266152;28;20058;-69
2024/02/14 16:56:36;;;;;;;2.63;0.90;;;;;;;12.28;72.45;100702.75;10258424;28;20039;-69
2024/02/14 17:01:38;;;;;;;4.03;1.10;;;;;;;12.25;72.73;100713.03;10263381;28;20146;-62
2024/02/14 17:06:39;;;;;;;1.98;1.13;;;;;;;12.30;72.67;100718.72;10267902;28;20046;-64
2024/02/14 17:11:41;;;;;;;3.40;1.60;;;;;;;12.27;73.19;100711.81;10262611;28;20070;-63
2024/02/14 17:16:43;;;;;;;2.50;1.30;;;;;;;12.22;73.51;100716.06;10261872;28;20148;-65
2024/02/14 17:21:45;;;;;;;2.88;1.40;;;;;;;12.22;73.71;100718.75;10277456;28;20046;-62
2024/02/14 17:26:47;;;;;;;3.65;1.90;;;;;;;12.23;73.64;100723.16;10270819;28;20053;-62
2024/02/14 17:31:50;;;;;;;5.32;1.80;;;;;;;12.20;73.87;100728.88;10263062;28;20047;-64
2024/02/14 17:36:51;;;;;;;1.92;1.23;;;;;;;12.21;74.22;100722.50;10272453;28;20043;-61
2024/02/14 17:41:54;;;;;;;5.13;2.53;;;;;;;12.32;73.90;100715.84;10272475;28;20458;-61
2024/02/14 17:46:56;;;;;;;6.70;2.35;;;;;;;12.26;73.96;100723.66;10271322;28;20221;-63
2024/02/14 17:51:58;;;;;;;3.72;2.13;;;;;;;12.26;74.32;100720.94;10267956;28;20058;-63
2024/02/14 17:57:01;;;;;;;3.22;1.70;;;;;;;12.22;74.32;100735.81;10275036;28;20072;-63
2024/02/14 18:02:03;;;;;;;5.00;3.30;;;;;;;12.29;74.45;100733.22;10271778;28;20051;-64
2024/02/14 18:07:04;;;;;;;7.57;3.28;;;;;;;12.24;74.72;100730.22;10268567;28;20062;-62
2024/02/14 18:12:06;;;;;;;3.88;2.60;;;;;;;12.24;74.77;100720.28;10273140;28;20051;-69
2024/02/14 18:17:08;;;;;;;5.50;3.75;;;;;;;12.27;74.66;100735.25;10269905;28;20063;-67
2024/02/14 18:22:10;;;;;;;3.33;2.60;;;;;;;12.29;74.86;100733.22;10274264;28;20051;-64
2024/02/14 18:27:11;;;;;;;7.22;3.63;;;;;;;12.36;74.53;100739.59;10270700;28;20051;-67
2024/02/14 18:32:13;;;;;;;5.00;3.33;;;;;;;12.43;74.79;100734.31;10271065;28;20106;-68
2024/02/14 18:37:16;;;;;;;3.08;2.63;;;;;;;12.40;74.89;100734.66;10272604;28;20121;-66
2024/02/14 18:42:17;;;;;;;7.70;2.28;;;;;;;12.45;74.79;100733.09;10269577;28;20076;-65
2024/02/14 18:47:19;;;;;;;8.65;2.30;;;;;;;12.46;75.01;100736.63;10266168;28;20044;-67
2024/02/14 18:52:20;;;;;;;5.72;2.30;;;;;;;12.50;74.82;100732.59;10272360;28;20054;-66
2024/02/14 18:57:22;;;;;;;5.55;2.40;;;;;;;12.53;74.94;100736.78;10281055;28;20051;-64
2024/02/14 19:02:23;;;;;;;5.63;3.20;;;;;;;12.52;75.13;100732.38;10267620;28;20061;-67
2024/02/14 19:07:25;;;;;;;6.70;3.83;;;;;;;12.49;75.32;100736.28;10268953;28;20043;-66
2024/02/14 19:12:27;;;;;;;5.07;3.17;;;;;;;12.52;75.15;100721.59;10275360;28;20074;-65
2024/02/14 19:17:33;;;;;;;7.28;3.85;;;;;;;12.49;75.24;100712.84;10271465;28;20054;-68
2024/02/14 19:22:35;;;;;;;5.28;3.35;;;;;;;12.47;75.55;100717.59;10267701;28;20699;-66
2024/02/14 19:27:39;;;;;;;4.53;3.53;;;;;;;12.43;75.48;100723.53;10266853;28;20062;-67
2024/02/14 19:32:41;;;;;;;7.85;3.45;;;;;;;12.41;75.63;100710.22;10270283;28;20497;-67
2024/02/14 19:37:42;;;;;;;8.35;3.47;;;;;;;12.43;75.67;100707.34;10264828;28;20421;-67
2024/02/14 19:42:44;;;;;;;6.72;3.58;;;;;;;12.41;76.45;100704.81;10275583;28;20039;-69
2024/02/14 19:47:49;;;;;;;5.05;2.88;;;;;;;12.45;75.89;100703.44;10268588;28;20114;-66
2024/02/14 19:52:50;;;;;;;6.47;2.60;;;;;;;12.43;76.38;100715.44;10263044;28;20145;-68
2024/02/14 19:57:52;;;;;;;4.93;2.30;;;;;;;12.45;76.27;100706.16;10265992;28;20050;-66
2024/02/14 20:02:53;;;;;;;3.25;2.00;;;;;;;12.49;76.61;100718.25;10268838;28;20057;-66
2024/02/14 20:07:55;;;;;;;8.85;2.00;;;;;;;12.49;76.37;100718.25;10270766;28;20176;-67
2024/02/14 20:12:57;;;;;;;3.33;2.20;;;;;;;12.51;76.73;100718.06;10267308;28;20054;-67
2024/02/14 20:17:59;;;;;;;5.05;2.28;;;;;;;12.51;76.75;100731.56;10266385;28;20078;-68
2024/02/14 20:23:01;;;;;;;5.45;2.40;;;;;;;12.42;77.20;100730.78;10256114;28;20061;-65
2024/02/14 20:28:02;;;;;;;6.85;2.55;;;;;;;12.27;77.90;100732.56;10269345;28;20497;-69
2024/02/14 20:33:05;;;;;;;3.83;2.10;;;;;;;12.32;77.50;100732.03;10268871;28;20055;-63
2024/02/14 20:38:09;;;;;;;5.93;2.15;;;;;;;12.35;77.41;100724.41;10265650;28;20106;-63
2024/02/14 20:43:11;;;;;;;4.45;2.53;;;;;;;12.28;77.53;100727.00;10266937;28;20705;-64
2024/02/14 20:48:13;;;;;;;4.53;2.90;;;;;;;12.30;77.83;100726.78;10271747;28;20676;-63
2024/02/14 20:53:15;;;;;;;3.65;2.60;;;;;;;12.22;78.49;100735.81;10271060;28;20051;-65
2024/02/14 20:58:16;;;;;;;8.52;3.95;;;;;;;12.20;78.37;100735.09;10265177;28;20086;-64
2024/02/14 21:03:18;;;;;;;5.95;3.65;;;;;;;12.24;78.49;100728.38;10264478;28;20093;-63
2024/02/14 21:08:19;;;;;;;28.17;12.63;;;;;;;12.31;78.30;100739.28;10269893;28;20434;-64
2024/02/14 21:13:21;;;;;;;6.85;3.95;;;;;;;12.28;78.24;100736.91;10269683;28;20715;-64
2024/02/14 21:18:22;;;;;;;5.80;3.85;;;;;;;12.33;78.31;100745.31;10269116;28;20122;-65
2024/02/14 21:23:25;;;;;;;7.65;4.03;;;;;;;12.30;78.44;100756.44;10281936;28;20117;-64
2024/02/14 21:28:26;;;;;;;6.80;4.05;;;;;;;12.37;78.13;100746.66;10267435;28;20039;-64
2024/02/14 21:33:28;;;;;;;7.88;5.00;;;;;;;12.40;78.28;100750.84;10274017;28;20047;-64
2024/02/14 21:38:30;;;;;;;8.45;5.18;;;;;;;12.36;78.62;100746.81;10273853;28;20074;-64
2024/02/14 21:43:32;;;;;;;9.73;4.75;;;;;;;12.33;78.85;100739.09;10268808;28;20051;-66
2024/02/14 21:48:33;;;;;;;10.73;5.65;;;;;;;12.36;78.61;100744.97;10272486;28;20054;-65
2024/02/14 21:53:35;;;;;;;11.05;5.50;;;;;;;12.39;78.82;100749.16;10274428;28;20150;-67
2024/02/14 21:58:37;;;;;;;10.93;6.35;;;;;;;12.47;78.22;100752.63;10269966;28;20597;-66
2024/02/14 22:03:39;;;;;;;12.13;6.68;;;;;;;12.44;78.89;100754.84;10271036;28;20050;-66
2024/02/14 22:08:41;;;;;;;13.55;6.38;;;;;;;12.49;78.31;100753.31;10272283;28;20133;-67
2024/02/14 22:13:42;;;;;;;11.60;7.03;;;;;;;12.50;78.62;100751.47;10275699;28;20126;-64
2024/02/14 22:18:44;;;;;;;13.00;7.07;;;;;;;12.50;78.87;100749.59;10351326;23;20042;-84
2024/02/14 22:23:47;;;;;;;11.30;7.15;;;;;;;12.65;78.22;100748.81;10351312;28;20081;-85
2024/02/14 22:28:48;;;;;;;17.35;7.30;;;;;;;12.59;78.38;100752.25;10347823;28;20046;-85
2024/02/14 22:33:52;;;;;;;11.75;6.68;;;;;;;12.61;78.42;100750.19;10348371;28;20065;-85
2024/02/14 22:38:55;;;;;;;12.20;6.57;;;;;;;12.74;77.93;100746.88;10335662;28;20073;-86
2024/02/14 22:43:57;;;;;;;15.85;7.97;;;;;;;12.71;78.09;100742.69;10352417;28;20061;-85
2024/02/14 22:48:59;;;;;;;17.35;7.22;;;;;;;12.70;77.74;100741.03;10339838;28;20118;-85
2024/02/14 22:54:02;;;;;;;14.23;7.28;;;;;;;12.65;78.21;100744.25;10340008;28;20058;-84
2024/02/14 22:59:04;;;;;;;15.70;7.55;;;;;;;12.61;78.39;100745.63;10298969;28;20090;-87
2024/02/14 23:04:07;;;;;;;15.48;7.53;;;;;;;12.62;78.38;100735.72;10311188;28;20055;-88
2024/02/14 23:09:09;;;;;;;16.85;8.25;;;;;;;12.63;78.32;100740.06;10310913;28;20050;-88
2024/02/14 23:14:17;;;;;;;16.42;9.38;;;;;;;12.62;78.48;100733.00;10293744;28;20134;-88
2024/02/14 23:19:19;;;;;;;20.25;9.13;;;;;;;12.55;78.79;100732.03;10302818;28;20050;-88